SWA1092 KLGB-KDAL
Flight info
| Callsign | SWA1092 |
|---|---|
| Flight time | 2h 29m |
| Altitude | 39000 |
| Route | FRITR3 CNERY DCT BLH DCT ANGRY DCT KRRBY DCT ONM DCT CNX DCT TXO DCT TURKI JFRYE5 |
| Aircraft | B737/M-SDE2E3FGHIRWXY/LB1 |
Departure
| Time | 2026-05-06 00:33 |
|---|---|
| Airport | Long Beach International Airport (KLGB) |
Arrival
| Time | 2026-05-06 03:02 |
|---|---|
| Airport | Dallas Love Field (KDAL) |
| Time | Latitude | Longitude | Altitude | Speed | Heading |
|---|---|---|---|---|---|
| 2026-05-06 00:02 | 33.81781 | -118.14607 | 53 ft | 0 kts | 89° |
| 2026-05-06 00:21 | 33.81781 | -118.14635 | 48 ft | 4 kts | 94° |
| 2026-05-06 00:21 | 33.81785 | -118.14667 | 52 ft | 4 kts | 107° |
| 2026-05-06 00:21 | 33.81796 | -118.14694 | 47 ft | 4 kts | 144° |
| 2026-05-06 00:21 | 33.81808 | -118.14701 | 54 ft | 0 kts | 180° |
| 2026-05-06 00:23 | 33.81808 | -118.14700 | 54 ft | 0 kts | 180° |
| 2026-05-06 00:25 | 33.81804 | -118.14701 | 56 ft | 2 kts | 180° |
| 2026-05-06 00:25 | 33.81777 | -118.14701 | 54 ft | 6 kts | 180° |
| 2026-05-06 00:26 | 33.81733 | -118.14701 | 51 ft | 6 kts | 180° |
| 2026-05-06 00:26 | 33.81691 | -118.14701 | 55 ft | 6 kts | 180° |
| 2026-05-06 00:26 | 33.81649 | -118.14701 | 52 ft | 6 kts | 181° |
| 2026-05-06 00:26 | 33.81608 | -118.14702 | 54 ft | 6 kts | 181° |
| 2026-05-06 00:27 | 33.81566 | -118.14691 | 55 ft | 8 kts | 149° |
| 2026-05-06 00:27 | 33.81518 | -118.14633 | 54 ft | 11 kts | 134° |
| 2026-05-06 00:27 | 33.81464 | -118.14569 | 50 ft | 11 kts | 135° |
| 2026-05-06 00:27 | 33.81411 | -118.14506 | 53 ft | 10 kts | 135° |
| 2026-05-06 00:28 | 33.81362 | -118.14444 | 57 ft | 10 kts | 134° |
| 2026-05-06 00:28 | 33.81312 | -118.14384 | 57 ft | 10 kts | 134° |
| 2026-05-06 00:28 | 33.81259 | -118.14318 | 51 ft | 12 kts | 134° |
| 2026-05-06 00:28 | 33.81202 | -118.14248 | 52 ft | 12 kts | 134° |
| 2026-05-06 00:29 | 33.81145 | -118.14182 | 51 ft | 11 kts | 136° |
| 2026-05-06 00:29 | 33.81090 | -118.14115 | 48 ft | 12 kts | 134° |
| 2026-05-06 00:29 | 33.81033 | -118.14046 | 47 ft | 11 kts | 135° |
| 2026-05-06 00:29 | 33.80977 | -118.13980 | 46 ft | 11 kts | 135° |
| 2026-05-06 00:30 | 33.80922 | -118.13911 | 42 ft | 12 kts | 135° |
| 2026-05-06 00:30 | 33.80856 | -118.13833 | 38 ft | 14 kts | 135° |
| 2026-05-06 00:30 | 33.80788 | -118.13758 | 36 ft | 10 kts | 156° |
| 2026-05-06 00:30 | 33.80757 | -118.13759 | 34 ft | 0 kts | 205° |
| 2026-05-06 00:31 | 33.80756 | -118.13759 | 33 ft | 1 kts | 205° |
| 2026-05-06 00:32 | 33.80744 | -118.13770 | 33 ft | 5 kts | 218° |
| 2026-05-06 00:32 | 33.80713 | -118.13817 | 33 ft | 9 kts | 253° |
| 2026-05-06 00:32 | 33.80741 | -118.13880 | 34 ft | 9 kts | 314° |
| 2026-05-06 00:32 | 33.80861 | -118.14027 | 41 ft | 53 kts | 315° |
| 2026-05-06 00:33 | 33.81263 | -118.14513 | 50 ft | 109 kts | 314° |
| 2026-05-06 00:33 | 33.81894 | -118.15291 | 110 ft | 145 kts | 313° |
| 2026-05-06 00:33 | 33.82621 | -118.16181 | 605 ft | 150 kts | 313° |
| 2026-05-06 00:33 | 33.83401 | -118.17138 | 956 ft | 167 kts | 313° |
| 2026-05-06 00:34 | 33.84207 | -118.18159 | 1491 ft | 169 kts | 309° |
| 2026-05-06 00:34 | 33.84781 | -118.19344 | 2067 ft | 168 kts | 275° |
| 2026-05-06 00:34 | 33.84563 | -118.20746 | 2602 ft | 179 kts | 235° |
| 2026-05-06 00:34 | 33.83554 | -118.21582 | 3375 ft | 184 kts | 192° |
| 2026-05-06 00:35 | 33.82226 | -118.21545 | 3894 ft | 203 kts | 165° |
| 2026-05-06 00:35 | 33.81013 | -118.20598 | 4210 ft | 228 kts | 127° |
| 2026-05-06 00:35 | 33.80308 | -118.18770 | 4482 ft | 256 kts | 111° |
| 2026-05-06 00:35 | 33.79526 | -118.16753 | 4962 ft | 275 kts | 122° |
| 2026-05-06 00:36 | 33.78376 | -118.14899 | 5816 ft | 278 kts | 131° |
| 2026-05-06 00:36 | 33.77007 | -118.13286 | 6579 ft | 274 kts | 139° |
| 2026-05-06 00:36 | 33.75492 | -118.11841 | 6907 ft | 278 kts | 143° |
| 2026-05-06 00:36 | 33.73934 | -118.10554 | 7002 ft | 282 kts | 146° |
| 2026-05-06 00:37 | 33.72225 | -118.09277 | 7565 ft | 291 kts | 148° |
| 2026-05-06 00:37 | 33.70464 | -118.08028 | 8465 ft | 297 kts | 148° |
| 2026-05-06 00:37 | 33.68875 | -118.06924 | 9441 ft | 294 kts | 148° |
| 2026-05-06 00:37 | 33.67098 | -118.05699 | 10403 ft | 298 kts | 148° |
| 2026-05-06 00:38 | 33.65412 | -118.04144 | 10788 ft | 317 kts | 126° |
| 2026-05-06 00:38 | 33.64488 | -118.01747 | 11430 ft | 320 kts | 98° |
| 2026-05-06 00:38 | 33.64345 | -117.99085 | 12281 ft | 323 kts | 87° |
| 2026-05-06 00:38 | 33.64361 | -117.96363 | 13089 ft | 330 kts | 87° |
| 2026-05-06 00:39 | 33.64396 | -117.93580 | 13910 ft | 336 kts | 88° |
| 2026-05-06 00:39 | 33.64422 | -117.90758 | 14721 ft | 341 kts | 88° |
| 2026-05-06 00:39 | 33.64431 | -117.87939 | 15612 ft | 343 kts | 87° |
| 2026-05-06 00:39 | 33.64427 | -117.85064 | 16539 ft | 346 kts | 88° |
| 2026-05-06 00:40 | 33.64420 | -117.82157 | 17420 ft | 350 kts | 89° |
| 2026-05-06 00:40 | 33.64284 | -117.79222 | 18297 ft | 355 kts | 97° |
| 2026-05-06 00:40 | 33.63723 | -117.76321 | 19085 ft | 359 kts | 104° |
| 2026-05-06 00:40 | 33.63011 | -117.73422 | 19806 ft | 365 kts | 106° |
| 2026-05-06 00:41 | 33.62263 | -117.70495 | 20588 ft | 368 kts | 106° |
| 2026-05-06 00:41 | 33.61505 | -117.67540 | 21307 ft | 374 kts | 106° |
| 2026-05-06 00:41 | 33.60745 | -117.64539 | 22088 ft | 377 kts | 105° |
| 2026-05-06 00:41 | 33.59990 | -117.61535 | 22733 ft | 384 kts | 105° |
| 2026-05-06 00:42 | 33.59223 | -117.58455 | 23552 ft | 385 kts | 105° |
| 2026-05-06 00:42 | 33.58451 | -117.55347 | 24112 ft | 392 kts | 105° |
| 2026-05-06 00:42 | 33.57668 | -117.52188 | 24643 ft | 397 kts | 106° |
| 2026-05-06 00:42 | 33.56874 | -117.48985 | 25143 ft | 404 kts | 106° |
| 2026-05-06 00:43 | 33.56069 | -117.45741 | 25711 ft | 409 kts | 106° |
| 2026-05-06 00:43 | 33.55248 | -117.42436 | 26160 ft | 416 kts | 106° |
| 2026-05-06 00:43 | 33.54421 | -117.39112 | 26873 ft | 417 kts | 106° |
| 2026-05-06 00:43 | 33.53583 | -117.35750 | 27307 ft | 425 kts | 107° |
| 2026-05-06 00:44 | 33.52728 | -117.32320 | 27685 ft | 433 kts | 107° |
| 2026-05-06 00:44 | 33.51860 | -117.28842 | 28210 ft | 437 kts | 107° |
| 2026-05-06 00:44 | 33.50991 | -117.25327 | 28717 ft | 442 kts | 105° |
| 2026-05-06 00:44 | 33.50409 | -117.21736 | 29147 ft | 447 kts | 95° |
| 2026-05-06 00:45 | 33.50270 | -117.17987 | 29619 ft | 452 kts | 90° |
| 2026-05-06 00:45 | 33.50240 | -117.14220 | 30101 ft | 456 kts | 90° |
| 2026-05-06 00:45 | 33.50232 | -117.10382 | 30474 ft | 460 kts | 90° |
| 2026-05-06 00:45 | 33.50219 | -117.06534 | 30874 ft | 463 kts | 90° |
| 2026-05-06 00:46 | 33.50192 | -117.02664 | 31272 ft | 466 kts | 90° |
| 2026-05-06 00:46 | 33.50151 | -116.98764 | 31649 ft | 469 kts | 91° |
| 2026-05-06 00:46 | 33.50099 | -116.94836 | 31996 ft | 472 kts | 91° |
| 2026-05-06 00:46 | 33.50041 | -116.90889 | 32340 ft | 476 kts | 91° |
| 2026-05-06 00:47 | 33.49979 | -116.86911 | 32664 ft | 479 kts | 91° |
| 2026-05-06 00:47 | 33.49915 | -116.82900 | 32867 ft | 485 kts | 91° |
| 2026-05-06 00:47 | 33.49850 | -116.78845 | 33156 ft | 488 kts | 91° |
| 2026-05-06 00:47 | 33.49783 | -116.74770 | 33529 ft | 489 kts | 91° |
| 2026-05-06 00:48 | 33.49717 | -116.70747 | 33956 ft | 488 kts | 91° |
| 2026-05-06 00:48 | 33.49649 | -116.66687 | 34350 ft | 487 kts | 91° |
| 2026-05-06 00:48 | 33.49580 | -116.62640 | 34739 ft | 485 kts | 92° |
| 2026-05-06 00:48 | 33.49510 | -116.58608 | 35098 ft | 484 kts | 92° |
| 2026-05-06 00:49 | 33.49438 | -116.54559 | 35314 ft | 487 kts | 92° |
| 2026-05-06 00:49 | 33.49364 | -116.50483 | 35503 ft | 490 kts | 92° |
| 2026-05-06 00:49 | 33.49290 | -116.46402 | 35764 ft | 491 kts | 92° |
| 2026-05-06 00:49 | 33.49214 | -116.42312 | 36115 ft | 490 kts | 92° |
| 2026-05-06 00:50 | 33.49146 | -116.38235 | 36469 ft | 489 kts | 92° |
| 2026-05-06 00:50 | 33.49086 | -116.34154 | 36750 ft | 489 kts | 92° |
| 2026-05-06 00:50 | 33.49029 | -116.30082 | 37070 ft | 488 kts | 92° |
| 2026-05-06 00:50 | 33.48971 | -116.26052 | 37269 ft | 489 kts | 92° |
| 2026-05-06 00:51 | 33.48910 | -116.21971 | 37412 ft | 491 kts | 93° |
| 2026-05-06 00:51 | 33.48845 | -116.17872 | 37581 ft | 493 kts | 93° |
| 2026-05-06 00:51 | 33.48779 | -116.13761 | 37864 ft | 493 kts | 93° |
| 2026-05-06 00:51 | 33.48711 | -116.09655 | 38095 ft | 494 kts | 93° |
| 2026-05-06 00:52 | 33.48739 | -116.05526 | 38233 ft | 498 kts | 86° |
| 2026-05-06 00:52 | 33.49214 | -116.01403 | 38373 ft | 501 kts | 77° |
| 2026-05-06 00:52 | 33.50185 | -115.97441 | 38564 ft | 501 kts | 70° |
| 2026-05-06 00:52 | 33.51364 | -115.93517 | 38807 ft | 500 kts | 69° |
| 2026-05-06 00:53 | 33.52577 | -115.89595 | 38873 ft | 504 kts | 69° |
| 2026-05-06 00:53 | 33.54976 | -115.81676 | 38877 ft | 505 kts | 70° |
| 2026-05-06 00:54 | 33.57291 | -115.73755 | 38860 ft | 499 kts | 70° |
| 2026-05-06 00:54 | 33.59564 | -115.65914 | 38873 ft | 497 kts | 70° |
| 2026-05-06 00:55 | 33.61495 | -115.58025 | 38867 ft | 495 kts | 82° |
| 2026-05-06 00:55 | 33.61751 | -115.49822 | 38891 ft | 491 kts | 94° |
| 2026-05-06 00:56 | 33.61462 | -115.41628 | 38889 ft | 492 kts | 94° |
| 2026-05-06 00:56 | 33.61193 | -115.33401 | 38880 ft | 494 kts | 94° |
| 2026-05-06 00:57 | 33.60968 | -115.25153 | 38879 ft | 495 kts | 94° |
| 2026-05-06 00:57 | 33.60755 | -115.16925 | 38879 ft | 497 kts | 94° |
| 2026-05-06 00:58 | 33.60534 | -115.08625 | 38872 ft | 498 kts | 94° |
| 2026-05-06 00:58 | 33.60303 | -115.00308 | 38857 ft | 499 kts | 95° |
| 2026-05-06 00:59 | 33.60067 | -114.91983 | 38873 ft | 499 kts | 95° |
| 2026-05-06 00:59 | 33.59824 | -114.83642 | 38880 ft | 500 kts | 95° |
| 2026-05-06 01:00 | 33.59577 | -114.75363 | 38874 ft | 500 kts | 96° |
| 2026-05-06 01:00 | 33.59055 | -114.66980 | 38881 ft | 499 kts | 99° |
| 2026-05-06 01:01 | 33.58364 | -114.58755 | 38880 ft | 498 kts | 99° |
| 2026-05-06 01:01 | 33.57685 | -114.50477 | 38882 ft | 498 kts | 99° |
| 2026-05-06 01:02 | 33.57040 | -114.42208 | 38875 ft | 498 kts | 98° |
| 2026-05-06 01:02 | 33.56406 | -114.33935 | 38867 ft | 498 kts | 99° |
| 2026-05-06 01:03 | 33.55767 | -114.25667 | 38873 ft | 497 kts | 99° |
| 2026-05-06 01:03 | 33.55121 | -114.17409 | 38872 ft | 496 kts | 99° |
| 2026-05-06 01:04 | 33.54474 | -114.09216 | 38868 ft | 496 kts | 99° |
| 2026-05-06 01:04 | 33.53817 | -114.00976 | 38861 ft | 496 kts | 99° |
| 2026-05-06 01:05 | 33.53155 | -113.92744 | 38891 ft | 496 kts | 99° |
| 2026-05-06 01:05 | 33.52487 | -113.84512 | 38911 ft | 496 kts | 100° |
| 2026-05-06 01:06 | 33.51815 | -113.76287 | 38922 ft | 496 kts | 100° |
| 2026-05-06 01:06 | 33.51141 | -113.68100 | 38940 ft | 497 kts | 100° |
| 2026-05-06 01:07 | 33.50454 | -113.59834 | 38947 ft | 497 kts | 100° |
| 2026-05-06 01:07 | 33.49763 | -113.51585 | 38944 ft | 498 kts | 100° |
| 2026-05-06 01:08 | 33.49182 | -113.44702 | 38930 ft | 499 kts | 100° |
| 2026-05-06 01:08 | 33.48363 | -113.35065 | 38857 ft | 500 kts | 101° |
| 2026-05-06 01:09 | 33.47653 | -113.26782 | 38840 ft | 500 kts | 101° |
| 2026-05-06 01:09 | 33.47052 | -113.19833 | 38857 ft | 501 kts | 101° |
| 2026-05-06 01:10 | 33.46332 | -113.11562 | 38863 ft | 503 kts | 101° |
| 2026-05-06 01:10 | 33.45599 | -113.03216 | 38864 ft | 505 kts | 102° |
| 2026-05-06 01:11 | 33.44858 | -112.94827 | 38891 ft | 507 kts | 102° |
| 2026-05-06 01:11 | 33.44107 | -112.86403 | 38897 ft | 509 kts | 102° |
| 2026-05-06 01:12 | 33.43349 | -112.77949 | 38901 ft | 511 kts | 102° |
| 2026-05-06 01:12 | 33.42588 | -112.69534 | 38902 ft | 511 kts | 102° |
| 2026-05-06 01:13 | 33.41817 | -112.61065 | 38906 ft | 511 kts | 102° |
| 2026-05-06 01:13 | 33.41040 | -112.52600 | 38898 ft | 511 kts | 102° |
| 2026-05-06 01:14 | 33.39865 | -112.39917 | 38872 ft | 510 kts | 103° |
| 2026-05-06 01:14 | 33.39077 | -112.31498 | 38891 ft | 509 kts | 103° |
| 2026-05-06 01:15 | 33.38612 | -112.23001 | 38883 ft | 518 kts | 92° |
| 2026-05-06 01:15 | 33.39925 | -112.14523 | 38885 ft | 526 kts | 76° |
| 2026-05-06 01:16 | 33.42099 | -112.06151 | 38876 ft | 526 kts | 75° |
| 2026-05-06 01:16 | 33.44296 | -111.97786 | 38875 ft | 527 kts | 76° |
| 2026-05-06 01:17 | 33.46429 | -111.89385 | 38881 ft | 527 kts | 76° |
| 2026-05-06 01:17 | 33.48523 | -111.80957 | 38899 ft | 527 kts | 77° |
| 2026-05-06 01:18 | 33.50594 | -111.72565 | 38892 ft | 528 kts | 77° |
| 2026-05-06 01:18 | 33.52673 | -111.64132 | 38898 ft | 528 kts | 77° |
| 2026-05-06 01:19 | 33.54754 | -111.55676 | 38838 ft | 528 kts | 77° |
| 2026-05-06 01:19 | 33.56815 | -111.47275 | 38845 ft | 527 kts | 77° |
| 2026-05-06 01:20 | 33.58881 | -111.38831 | 38846 ft | 528 kts | 77° |
| 2026-05-06 01:20 | 33.60941 | -111.30358 | 38886 ft | 528 kts | 77° |
| 2026-05-06 01:21 | 33.63000 | -111.21885 | 38847 ft | 528 kts | 77° |
| 2026-05-06 01:21 | 33.65041 | -111.13481 | 38844 ft | 528 kts | 77° |
| 2026-05-06 01:22 | 33.67081 | -111.05038 | 38857 ft | 525 kts | 77° |
| 2026-05-06 01:22 | 33.69112 | -110.96594 | 38845 ft | 526 kts | 77° |
| 2026-05-06 01:23 | 33.71134 | -110.88158 | 38843 ft | 525 kts | 77° |
| 2026-05-06 01:23 | 33.73152 | -110.79716 | 38827 ft | 525 kts | 77° |
| 2026-05-06 01:24 | 33.75161 | -110.71280 | 38831 ft | 525 kts | 77° |
| 2026-05-06 01:24 | 33.77164 | -110.62846 | 38843 ft | 525 kts | 78° |
| 2026-05-06 01:25 | 33.79160 | -110.54408 | 38841 ft | 525 kts | 78° |
| 2026-05-06 01:25 | 33.81144 | -110.45995 | 38825 ft | 526 kts | 78° |
| 2026-05-06 01:26 | 33.83139 | -110.37508 | 38839 ft | 527 kts | 78° |
| 2026-05-06 01:26 | 33.85131 | -110.29003 | 38838 ft | 528 kts | 78° |
| 2026-05-06 01:27 | 33.87113 | -110.20514 | 38848 ft | 530 kts | 78° |
| 2026-05-06 01:27 | 33.89104 | -110.11954 | 38838 ft | 531 kts | 78° |
| 2026-05-06 01:28 | 33.91097 | -110.03359 | 38864 ft | 533 kts | 78° |
| 2026-05-06 01:28 | 33.93088 | -109.94742 | 38870 ft | 534 kts | 78° |
| 2026-05-06 01:29 | 33.95073 | -109.86123 | 38889 ft | 535 kts | 78° |
| 2026-05-06 01:29 | 33.97047 | -109.77516 | 38829 ft | 536 kts | 78° |
| 2026-05-06 01:30 | 33.99037 | -109.68818 | 38864 ft | 535 kts | 78° |
| 2026-05-06 01:30 | 34.00995 | -109.60224 | 38913 ft | 535 kts | 78° |
| 2026-05-06 01:31 | 34.02956 | -109.51585 | 38965 ft | 534 kts | 78° |
| 2026-05-06 01:31 | 34.04911 | -109.42940 | 38997 ft | 533 kts | 78° |
| 2026-05-06 01:32 | 34.06827 | -109.34289 | 39026 ft | 532 kts | 82° |
| 2026-05-06 01:32 | 34.07999 | -109.25591 | 39037 ft | 527 kts | 88° |
| 2026-05-06 01:33 | 34.08917 | -109.16816 | 39015 ft | 528 kts | 89° |
| 2026-05-06 01:33 | 34.09862 | -109.08011 | 38946 ft | 529 kts | 88° |
| 2026-05-06 01:34 | 34.10862 | -108.99196 | 38894 ft | 530 kts | 88° |
| 2026-05-06 01:34 | 34.11881 | -108.90374 | 38829 ft | 531 kts | 88° |
| 2026-05-06 01:35 | 34.12888 | -108.81598 | 38806 ft | 531 kts | 88° |
| 2026-05-06 01:35 | 34.13892 | -108.72748 | 38792 ft | 532 kts | 88° |
| 2026-05-06 01:36 | 34.14890 | -108.63880 | 38795 ft | 532 kts | 88° |
| 2026-05-06 01:36 | 34.15880 | -108.55023 | 38814 ft | 533 kts | 88° |
| 2026-05-06 01:37 | 34.16865 | -108.46146 | 38815 ft | 533 kts | 89° |
| 2026-05-06 01:37 | 34.17838 | -108.37308 | 38795 ft | 534 kts | 89° |
| 2026-05-06 01:38 | 34.18816 | -108.28394 | 38815 ft | 535 kts | 89° |
| 2026-05-06 01:38 | 34.19786 | -108.19488 | 38802 ft | 535 kts | 89° |
| 2026-05-06 01:39 | 34.20749 | -108.10572 | 38817 ft | 534 kts | 89° |
| 2026-05-06 01:39 | 34.21699 | -108.01724 | 38817 ft | 534 kts | 89° |
| 2026-05-06 01:40 | 34.22649 | -107.92803 | 38804 ft | 535 kts | 89° |
| 2026-05-06 01:40 | 34.23586 | -107.83888 | 38829 ft | 534 kts | 89° |
| 2026-05-06 01:41 | 34.24525 | -107.74986 | 38820 ft | 534 kts | 89° |
| 2026-05-06 01:41 | 34.25458 | -107.66064 | 38804 ft | 534 kts | 89° |
| 2026-05-06 01:42 | 34.26315 | -107.57804 | 38814 ft | 533 kts | 89° |
| 2026-05-06 01:42 | 34.27228 | -107.48906 | 38803 ft | 534 kts | 89° |
| 2026-05-06 01:43 | 34.28136 | -107.40015 | 38811 ft | 533 kts | 89° |
| 2026-05-06 01:43 | 34.29033 | -107.31187 | 38792 ft | 532 kts | 90° |
| 2026-05-06 01:44 | 34.29929 | -107.22267 | 38772 ft | 535 kts | 90° |
| 2026-05-06 01:44 | 34.30824 | -107.13319 | 38782 ft | 535 kts | 90° |
| 2026-05-06 01:45 | 34.31712 | -107.04376 | 38796 ft | 534 kts | 90° |
| 2026-05-06 01:45 | 34.32585 | -106.95497 | 38803 ft | 535 kts | 90° |
| 2026-05-06 01:46 | 34.33459 | -106.86546 | 38753 ft | 536 kts | 90° |
| 2026-05-06 01:46 | 34.34146 | -106.77581 | 38761 ft | 532 kts | 95° |
| 2026-05-06 01:47 | 34.34384 | -106.68645 | 38724 ft | 531 kts | 97° |
| 2026-05-06 01:47 | 34.34547 | -106.59686 | 38796 ft | 541 kts | 96° |
| 2026-05-06 01:48 | 34.34756 | -106.50666 | 38755 ft | 546 kts | 96° |
| 2026-05-06 01:48 | 34.35002 | -106.41534 | 38783 ft | 546 kts | 96° |
| 2026-05-06 01:49 | 34.35221 | -106.33347 | 38778 ft | 547 kts | 97° |
| 2026-05-06 01:49 | 34.35452 | -106.24150 | 38788 ft | 546 kts | 97° |
| 2026-05-06 01:50 | 34.35673 | -106.14963 | 38793 ft | 546 kts | 97° |
| 2026-05-06 01:50 | 34.35887 | -106.05778 | 38796 ft | 546 kts | 97° |
| 2026-05-06 01:51 | 34.36094 | -105.96632 | 38781 ft | 546 kts | 97° |
| 2026-05-06 01:51 | 34.36295 | -105.87455 | 38789 ft | 545 kts | 97° |
| 2026-05-06 01:52 | 34.36487 | -105.78345 | 38785 ft | 544 kts | 97° |
| 2026-05-06 01:52 | 34.36674 | -105.69173 | 38793 ft | 544 kts | 97° |
| 2026-05-06 01:53 | 34.37007 | -105.60000 | 38756 ft | 546 kts | 94° |
| 2026-05-06 01:53 | 34.37576 | -105.50823 | 38769 ft | 546 kts | 93° |
| 2026-05-06 01:54 | 34.38146 | -105.41651 | 38759 ft | 545 kts | 93° |
| 2026-05-06 01:54 | 34.38663 | -105.32499 | 38739 ft | 544 kts | 94° |
| 2026-05-06 01:55 | 34.39148 | -105.23400 | 38735 ft | 543 kts | 94° |
| 2026-05-06 01:55 | 34.39622 | -105.14287 | 38710 ft | 541 kts | 95° |
| 2026-05-06 01:56 | 34.40092 | -105.05200 | 38700 ft | 540 kts | 95° |
| 2026-05-06 01:56 | 34.40556 | -104.96126 | 38694 ft | 539 kts | 95° |
| 2026-05-06 01:57 | 34.41013 | -104.87063 | 38686 ft | 540 kts | 95° |
| 2026-05-06 01:57 | 34.41464 | -104.77973 | 38687 ft | 541 kts | 95° |
| 2026-05-06 01:58 | 34.41909 | -104.68880 | 38687 ft | 542 kts | 95° |
| 2026-05-06 01:58 | 34.42351 | -104.59739 | 38668 ft | 544 kts | 95° |
| 2026-05-06 01:59 | 34.42785 | -104.50592 | 38666 ft | 545 kts | 95° |
| 2026-05-06 01:59 | 34.43214 | -104.41410 | 38648 ft | 546 kts | 95° |
| 2026-05-06 02:00 | 34.43637 | -104.32272 | 38637 ft | 547 kts | 95° |
| 2026-05-06 02:00 | 34.44054 | -104.23042 | 38641 ft | 548 kts | 95° |
| 2026-05-06 02:01 | 34.44464 | -104.13802 | 38634 ft | 550 kts | 95° |
| 2026-05-06 02:01 | 34.44868 | -104.04540 | 38619 ft | 551 kts | 95° |
| 2026-05-06 02:02 | 34.45264 | -103.95339 | 38618 ft | 551 kts | 95° |
| 2026-05-06 02:02 | 34.45656 | -103.86054 | 38640 ft | 552 kts | 95° |
| 2026-05-06 02:03 | 34.46041 | -103.76781 | 38613 ft | 550 kts | 94° |
| 2026-05-06 02:03 | 34.46419 | -103.67509 | 38626 ft | 549 kts | 94° |
| 2026-05-06 02:04 | 34.46789 | -103.58260 | 38646 ft | 548 kts | 94° |
| 2026-05-06 02:04 | 34.47148 | -103.49091 | 38660 ft | 547 kts | 94° |
| 2026-05-06 02:05 | 34.47502 | -103.39885 | 38661 ft | 546 kts | 94° |
| 2026-05-06 02:05 | 34.47848 | -103.30686 | 38711 ft | 545 kts | 94° |
| 2026-05-06 02:06 | 34.48188 | -103.21491 | 38712 ft | 545 kts | 94° |
| 2026-05-06 02:06 | 34.48519 | -103.12310 | 38806 ft | 544 kts | 94° |
| 2026-05-06 02:07 | 34.48842 | -103.03179 | 38796 ft | 546 kts | 94° |
| 2026-05-06 02:07 | 34.49161 | -102.93974 | 38793 ft | 547 kts | 94° |
| 2026-05-06 02:08 | 34.49458 | -102.84713 | 38792 ft | 547 kts | 97° |
| 2026-05-06 02:08 | 34.48820 | -102.75710 | 38776 ft | 537 kts | 106° |
| 2026-05-06 02:09 | 34.47808 | -102.66743 | 38782 ft | 538 kts | 107° |
| 2026-05-06 02:09 | 34.46803 | -102.57743 | 38786 ft | 540 kts | 106° |
| 2026-05-06 02:10 | 34.45842 | -102.48679 | 38787 ft | 542 kts | 106° |
| 2026-05-06 02:10 | 34.44894 | -102.39586 | 38750 ft | 544 kts | 105° |
| 2026-05-06 02:11 | 34.43941 | -102.30489 | 38786 ft | 544 kts | 105° |
| 2026-05-06 02:11 | 34.42980 | -102.21440 | 38788 ft | 544 kts | 105° |
| 2026-05-06 02:12 | 34.42005 | -102.12351 | 38789 ft | 544 kts | 105° |
| 2026-05-06 02:12 | 34.41023 | -102.03259 | 38756 ft | 544 kts | 105° |
| 2026-05-06 02:13 | 34.40040 | -101.94206 | 38785 ft | 541 kts | 105° |
| 2026-05-06 02:13 | 34.39054 | -101.85190 | 38834 ft | 540 kts | 105° |
| 2026-05-06 02:14 | 34.38060 | -101.76183 | 38848 ft | 539 kts | 105° |
| 2026-05-06 02:14 | 34.37069 | -101.67259 | 38822 ft | 537 kts | 105° |
| 2026-05-06 02:15 | 34.36070 | -101.58319 | 38854 ft | 536 kts | 105° |
| 2026-05-06 02:15 | 34.35064 | -101.49379 | 38844 ft | 535 kts | 105° |
| 2026-05-06 02:16 | 34.34053 | -101.40454 | 38840 ft | 534 kts | 105° |
| 2026-05-06 02:16 | 34.33210 | -101.33060 | 38827 ft | 534 kts | 105° |
| 2026-05-06 02:17 | 34.32024 | -101.22716 | 38821 ft | 533 kts | 105° |
| 2026-05-06 02:17 | 34.30998 | -101.13829 | 38835 ft | 533 kts | 105° |
| 2026-05-06 02:18 | 34.30139 | -101.06435 | 38833 ft | 533 kts | 105° |
| 2026-05-06 02:18 | 34.29098 | -100.97537 | 38847 ft | 534 kts | 106° |
| 2026-05-06 02:19 | 34.28049 | -100.88640 | 38850 ft | 534 kts | 106° |
| 2026-05-06 02:19 | 34.27000 | -100.79792 | 38840 ft | 534 kts | 106° |
| 2026-05-06 02:20 | 34.25407 | -100.66439 | 38837 ft | 533 kts | 106° |
| 2026-05-06 02:21 | 34.24337 | -100.57551 | 38847 ft | 534 kts | 106° |
| 2026-05-06 02:21 | 34.23266 | -100.48717 | 38848 ft | 534 kts | 106° |
| 2026-05-06 02:22 | 34.22183 | -100.39825 | 38860 ft | 535 kts | 106° |
| 2026-05-06 02:22 | 34.21093 | -100.30924 | 38894 ft | 535 kts | 106° |
| 2026-05-06 02:23 | 34.19928 | -100.22052 | 38887 ft | 533 kts | 109° |
| 2026-05-06 02:23 | 34.18375 | -100.13311 | 38870 ft | 531 kts | 111° |
| 2026-05-06 02:24 | 34.16734 | -100.04661 | 38873 ft | 532 kts | 111° |
| 2026-05-06 02:24 | 34.15124 | -99.95938 | 38864 ft | 533 kts | 111° |
| 2026-05-06 02:25 | 34.13542 | -99.87182 | 38865 ft | 533 kts | 111° |
| 2026-05-06 02:25 | 34.11960 | -99.78427 | 38861 ft | 533 kts | 111° |
| 2026-05-06 02:26 | 34.10367 | -99.69671 | 38866 ft | 534 kts | 111° |
| 2026-05-06 02:26 | 34.08776 | -99.60976 | 38823 ft | 533 kts | 111° |
| 2026-05-06 02:27 | 34.07164 | -99.52216 | 38349 ft | 537 kts | 111° |
| 2026-05-06 02:27 | 34.06354 | -99.47826 | 37794 ft | 536 kts | 111° |
| 2026-05-06 02:27 | 34.05546 | -99.43442 | 37246 ft | 534 kts | 111° |
| 2026-05-06 02:27 | 34.04738 | -99.39070 | 36692 ft | 533 kts | 111° |
| 2026-05-06 02:28 | 34.03930 | -99.34711 | 36137 ft | 532 kts | 111° |
| 2026-05-06 02:28 | 34.03121 | -99.30358 | 35571 ft | 532 kts | 111° |
| 2026-05-06 02:28 | 34.02308 | -99.26004 | 34948 ft | 533 kts | 111° |
| 2026-05-06 02:28 | 34.01314 | -99.21735 | 34470 ft | 523 kts | 118° |
| 2026-05-06 02:29 | 34.00099 | -99.17653 | 34049 ft | 515 kts | 121° |
| 2026-05-06 02:29 | 33.98785 | -99.13657 | 33543 ft | 511 kts | 123° |
| 2026-05-06 02:29 | 33.97469 | -99.09756 | 33048 ft | 507 kts | 122° |
| 2026-05-06 02:29 | 33.96158 | -99.05825 | 32590 ft | 505 kts | 122° |
| 2026-05-06 02:30 | 33.94875 | -99.01892 | 32133 ft | 502 kts | 121° |
| 2026-05-06 02:30 | 33.93620 | -98.97966 | 31679 ft | 499 kts | 121° |
| 2026-05-06 02:30 | 33.92391 | -98.94069 | 31232 ft | 496 kts | 120° |
| 2026-05-06 02:30 | 33.91177 | -98.90202 | 30798 ft | 493 kts | 120° |
| 2026-05-06 02:31 | 33.89968 | -98.86353 | 30371 ft | 490 kts | 120° |
| 2026-05-06 02:31 | 33.88764 | -98.82526 | 29869 ft | 488 kts | 120° |
| 2026-05-06 02:31 | 33.87563 | -98.78722 | 29397 ft | 484 kts | 120° |
| 2026-05-06 02:31 | 33.86368 | -98.74941 | 28895 ft | 480 kts | 120° |
| 2026-05-06 02:32 | 33.85200 | -98.71255 | 28461 ft | 476 kts | 120° |
| 2026-05-06 02:32 | 33.84024 | -98.67551 | 27988 ft | 472 kts | 119° |
| 2026-05-06 02:32 | 33.82851 | -98.63861 | 27525 ft | 469 kts | 119° |
| 2026-05-06 02:32 | 33.81690 | -98.60212 | 27068 ft | 466 kts | 119° |
| 2026-05-06 02:33 | 33.80534 | -98.56585 | 26607 ft | 462 kts | 119° |
| 2026-05-06 02:33 | 33.79775 | -98.54203 | 26310 ft | 460 kts | 119° |
| 2026-05-06 02:34 | 33.76006 | -98.42368 | 24910 ft | 446 kts | 118° |
| 2026-05-06 02:34 | 33.74916 | -98.38942 | 24485 ft | 443 kts | 118° |
| 2026-05-06 02:34 | 33.73812 | -98.35479 | 24012 ft | 442 kts | 118° |
| 2026-05-06 02:34 | 33.72712 | -98.32037 | 23536 ft | 441 kts | 118° |
| 2026-05-06 02:35 | 33.71611 | -98.28593 | 22989 ft | 440 kts | 118° |
| 2026-05-06 02:35 | 33.70515 | -98.25165 | 22491 ft | 437 kts | 117° |
| 2026-05-06 02:35 | 33.69428 | -98.21765 | 22012 ft | 434 kts | 117° |
| 2026-05-06 02:35 | 33.68348 | -98.18393 | 21526 ft | 431 kts | 117° |
| 2026-05-06 02:36 | 33.67291 | -98.15094 | 21039 ft | 426 kts | 118° |
| 2026-05-06 02:36 | 33.66226 | -98.11770 | 20566 ft | 417 kts | 118° |
| 2026-05-06 02:36 | 33.65208 | -98.08593 | 20119 ft | 408 kts | 118° |
| 2026-05-06 02:36 | 33.64195 | -98.05441 | 19682 ft | 403 kts | 118° |
| 2026-05-06 02:37 | 33.63183 | -98.02306 | 19202 ft | 402 kts | 118° |
| 2026-05-06 02:37 | 33.62173 | -97.99184 | 18752 ft | 400 kts | 118° |
| 2026-05-06 02:37 | 33.61166 | -97.96072 | 18286 ft | 399 kts | 118° |
| 2026-05-06 02:37 | 33.60161 | -97.92968 | 17787 ft | 398 kts | 117° |
| 2026-05-06 02:38 | 33.59160 | -97.89876 | 17313 ft | 395 kts | 117° |
| 2026-05-06 02:38 | 33.58174 | -97.86825 | 16999 ft | 388 kts | 117° |
| 2026-05-06 02:38 | 33.57202 | -97.83820 | 16567 ft | 385 kts | 117° |
| 2026-05-06 02:38 | 33.56246 | -97.80874 | 16138 ft | 382 kts | 117° |
| 2026-05-06 02:39 | 33.55286 | -97.77917 | 15713 ft | 379 kts | 117° |
| 2026-05-06 02:39 | 33.54329 | -97.74978 | 15291 ft | 377 kts | 117° |
| 2026-05-06 02:39 | 33.53379 | -97.72057 | 14867 ft | 374 kts | 117° |
| 2026-05-06 02:39 | 33.52435 | -97.69160 | 14419 ft | 373 kts | 117° |
| 2026-05-06 02:40 | 33.51494 | -97.66273 | 13988 ft | 370 kts | 117° |
| 2026-05-06 02:40 | 33.50556 | -97.63402 | 13534 ft | 369 kts | 116° |
| 2026-05-06 02:40 | 33.49622 | -97.60539 | 13069 ft | 367 kts | 116° |
| 2026-05-06 02:40 | 33.48696 | -97.57703 | 12605 ft | 362 kts | 117° |
| 2026-05-06 02:41 | 33.47801 | -97.54961 | 12187 ft | 354 kts | 117° |
| 2026-05-06 02:41 | 33.46913 | -97.52246 | 11767 ft | 345 kts | 117° |
| 2026-05-06 02:41 | 33.46047 | -97.49601 | 11335 ft | 337 kts | 117° |
| 2026-05-06 02:41 | 33.45217 | -97.47002 | 11027 ft | 331 kts | 112° |
| 2026-05-06 02:42 | 33.44865 | -97.44298 | 10916 ft | 330 kts | 96° |
| 2026-05-06 02:42 | 33.44764 | -97.41533 | 10793 ft | 334 kts | 95° |
| 2026-05-06 02:42 | 33.44688 | -97.38728 | 10648 ft | 339 kts | 94° |
| 2026-05-06 02:42 | 33.44611 | -97.35893 | 10511 ft | 341 kts | 94° |
| 2026-05-06 02:43 | 33.44526 | -97.33055 | 10358 ft | 341 kts | 95° |
| 2026-05-06 02:43 | 33.44432 | -97.30220 | 10211 ft | 339 kts | 95° |
| 2026-05-06 02:43 | 33.44335 | -97.27444 | 10050 ft | 329 kts | 95° |
| 2026-05-06 02:43 | 33.44237 | -97.24749 | 9899 ft | 319 kts | 95° |
| 2026-05-06 02:44 | 33.44138 | -97.22118 | 9769 ft | 315 kts | 95° |
| 2026-05-06 02:44 | 33.44039 | -97.19532 | 9631 ft | 315 kts | 95° |
| 2026-05-06 02:44 | 33.43936 | -97.16910 | 9493 ft | 316 kts | 95° |
| 2026-05-06 02:44 | 33.43833 | -97.14275 | 9350 ft | 316 kts | 95° |
| 2026-05-06 02:45 | 33.43731 | -97.11682 | 9206 ft | 315 kts | 95° |
| 2026-05-06 02:45 | 33.43627 | -97.09040 | 9062 ft | 313 kts | 95° |
| 2026-05-06 02:45 | 33.43525 | -97.06465 | 8906 ft | 304 kts | 95° |
| 2026-05-06 02:45 | 33.43426 | -97.03975 | 8757 ft | 295 kts | 95° |
| 2026-05-06 02:46 | 33.43331 | -97.01602 | 8626 ft | 286 kts | 95° |
| 2026-05-06 02:46 | 33.43235 | -96.99209 | 8499 ft | 281 kts | 95° |
| 2026-05-06 02:46 | 33.43139 | -96.96872 | 8386 ft | 280 kts | 95° |
| 2026-05-06 02:46 | 33.43044 | -96.94541 | 8271 ft | 281 kts | 95° |
| 2026-05-06 02:47 | 33.42919 | -96.92248 | 8140 ft | 280 kts | 103° |
| 2026-05-06 02:47 | 33.42222 | -96.90122 | 8014 ft | 271 kts | 124° |
| 2026-05-06 02:47 | 33.41287 | -96.88163 | 7896 ft | 271 kts | 124° |
| 2026-05-06 02:47 | 33.40353 | -96.86202 | 7769 ft | 271 kts | 124° |
| 2026-05-06 02:48 | 33.39428 | -96.84242 | 7646 ft | 270 kts | 124° |
| 2026-05-06 02:48 | 33.38440 | -96.82335 | 7507 ft | 265 kts | 137° |
| 2026-05-06 02:48 | 33.36966 | -96.81157 | 7417 ft | 250 kts | 164° |
| 2026-05-06 02:48 | 33.35317 | -96.80576 | 7303 ft | 244 kts | 172° |
| 2026-05-06 02:49 | 33.33691 | -96.80162 | 7196 ft | 240 kts | 174° |
| 2026-05-06 02:49 | 33.32044 | -96.79764 | 7098 ft | 238 kts | 174° |
| 2026-05-06 02:49 | 33.30434 | -96.79376 | 6995 ft | 239 kts | 173° |
| 2026-05-06 02:49 | 33.28789 | -96.78975 | 6897 ft | 243 kts | 173° |
| 2026-05-06 02:50 | 33.27129 | -96.78565 | 6787 ft | 244 kts | 173° |
| 2026-05-06 02:50 | 33.25462 | -96.78148 | 6679 ft | 242 kts | 172° |
| 2026-05-06 02:50 | 33.23820 | -96.77734 | 6557 ft | 240 kts | 172° |
| 2026-05-06 02:50 | 33.22188 | -96.77322 | 6458 ft | 239 kts | 172° |
| 2026-05-06 02:51 | 33.20579 | -96.76913 | 6355 ft | 237 kts | 172° |
| 2026-05-06 02:51 | 33.18954 | -96.76500 | 6250 ft | 236 kts | 171° |
| 2026-05-06 02:51 | 33.17370 | -96.76097 | 6147 ft | 235 kts | 171° |
| 2026-05-06 02:51 | 33.15787 | -96.75693 | 6030 ft | 229 kts | 171° |
| 2026-05-06 02:52 | 33.14236 | -96.75297 | 5928 ft | 227 kts | 171° |
| 2026-05-06 02:52 | 33.12695 | -96.74904 | 5831 ft | 225 kts | 171° |
| 2026-05-06 02:52 | 33.11164 | -96.74514 | 5730 ft | 224 kts | 171° |
| 2026-05-06 02:52 | 33.09645 | -96.74127 | 5637 ft | 222 kts | 171° |
| 2026-05-06 02:53 | 33.08135 | -96.73742 | 5535 ft | 222 kts | 171° |
| 2026-05-06 02:53 | 33.06653 | -96.73364 | 5470 ft | 218 kts | 171° |
| 2026-05-06 02:53 | 33.05180 | -96.72988 | 5360 ft | 217 kts | 171° |
| 2026-05-06 02:53 | 33.03710 | -96.72614 | 5285 ft | 214 kts | 171° |
| 2026-05-06 02:54 | 33.02271 | -96.72247 | 5187 ft | 208 kts | 170° |
| 2026-05-06 02:54 | 33.00871 | -96.71890 | 5105 ft | 204 kts | 171° |
| 2026-05-06 02:54 | 32.99485 | -96.71537 | 5000 ft | 203 kts | 171° |
| 2026-05-06 02:54 | 32.98112 | -96.71188 | 4934 ft | 203 kts | 170° |
| 2026-05-06 02:55 | 32.96709 | -96.70832 | 4845 ft | 208 kts | 171° |
| 2026-05-06 02:55 | 32.95296 | -96.70473 | 4757 ft | 206 kts | 171° |
| 2026-05-06 02:55 | 32.93930 | -96.70124 | 4650 ft | 195 kts | 171° |
| 2026-05-06 02:55 | 32.92624 | -96.69791 | 4539 ft | 190 kts | 171° |
| 2026-05-06 02:56 | 32.91341 | -96.69465 | 4473 ft | 189 kts | 171° |
| 2026-05-06 02:56 | 32.90046 | -96.69137 | 4388 ft | 192 kts | 171° |
| 2026-05-06 02:56 | 32.88789 | -96.68818 | 4250 ft | 186 kts | 171° |
| 2026-05-06 02:56 | 32.87529 | -96.68498 | 4178 ft | 183 kts | 171° |
| 2026-05-06 02:57 | 32.86296 | -96.68186 | 4091 ft | 176 kts | 170° |
| 2026-05-06 02:57 | 32.85120 | -96.67896 | 3995 ft | 171 kts | 175° |
| 2026-05-06 02:57 | 32.83980 | -96.68178 | 3867 ft | 167 kts | 205° |
| 2026-05-06 02:57 | 32.82907 | -96.68787 | 3677 ft | 173 kts | 204° |
| 2026-05-06 02:58 | 32.81844 | -96.69393 | 3475 ft | 167 kts | 204° |
| 2026-05-06 02:58 | 32.80832 | -96.69974 | 3269 ft | 157 kts | 203° |
| 2026-05-06 02:58 | 32.79856 | -96.70537 | 3101 ft | 158 kts | 206° |
| 2026-05-06 02:58 | 32.78955 | -96.71312 | 2922 ft | 165 kts | 224° |
| 2026-05-06 02:59 | 32.78254 | -96.72428 | 2685 ft | 173 kts | 242° |
| 2026-05-06 02:59 | 32.77881 | -96.73731 | 2583 ft | 162 kts | 261° |
| 2026-05-06 02:59 | 32.77847 | -96.75053 | 2431 ft | 152 kts | 281° |
| 2026-05-06 02:59 | 32.78097 | -96.76205 | 2241 ft | 136 kts | 298° |
| 2026-05-06 03:00 | 32.78547 | -96.77203 | 2105 ft | 139 kts | 313° |
| 2026-05-06 03:00 | 32.79193 | -96.78061 | 1934 ft | 136 kts | 317° |
| 2026-05-06 03:00 | 32.79836 | -96.78859 | 1729 ft | 130 kts | 319° |
| 2026-05-06 03:00 | 32.80453 | -96.79600 | 1520 ft | 126 kts | 319° |
| 2026-05-06 03:01 | 32.81077 | -96.80334 | 1359 ft | 128 kts | 322° |
| 2026-05-06 03:01 | 32.81715 | -96.81053 | 1308 ft | 126 kts | 322° |
| 2026-05-06 03:01 | 32.82345 | -96.81800 | 1120 ft | 133 kts | 319° |
| 2026-05-06 03:01 | 32.82999 | -96.82523 | 910 ft | 126 kts | 321° |
| 2026-05-06 03:02 | 32.83631 | -96.83257 | 719 ft | 126 kts | 318° |
| 2026-05-06 03:02 | 32.84240 | -96.83964 | 534 ft | 116 kts | 319° |
| 2026-05-06 03:02 | 32.84743 | -96.84539 | 490 ft | 74 kts | 316° |
| 2026-05-06 03:02 | 32.84941 | -96.84771 | 488 ft | 23 kts | 314° |
| 2026-05-06 03:03 | 32.85058 | -96.84893 | 491 ft | 22 kts | 320° |
| 2026-05-06 03:03 | 32.85164 | -96.85022 | 483 ft | 21 kts | 314° |
| 2026-05-06 03:03 | 32.85268 | -96.85145 | 492 ft | 21 kts | 316° |
| 2026-05-06 03:03 | 32.85360 | -96.85252 | 483 ft | 14 kts | 305° |
| 2026-05-06 03:04 | 32.85330 | -96.85346 | 486 ft | 13 kts | 220° |
| 2026-05-06 03:04 | 32.85260 | -96.85408 | 483 ft | 13 kts | 184° |
| 2026-05-06 03:04 | 32.85188 | -96.85353 | 490 ft | 12 kts | 138° |
| 2026-05-06 03:04 | 32.85125 | -96.85284 | 491 ft | 12 kts | 138° |
| 2026-05-06 03:05 | 32.85064 | -96.85218 | 491 ft | 12 kts | 137° |
| 2026-05-06 03:05 | 32.85006 | -96.85152 | 490 ft | 11 kts | 129° |
| 2026-05-06 03:05 | 32.84957 | -96.85077 | 488 ft | 12 kts | 135° |
| 2026-05-06 03:05 | 32.84899 | -96.85011 | 490 ft | 11 kts | 136° |
| 2026-05-06 03:06 | 32.84843 | -96.85009 | 490 ft | 7 kts | 249° |
| 2026-05-06 03:06 | 32.84846 | -96.85069 | 491 ft | 8 kts | 274° |
| 2026-05-06 03:06 | 32.84848 | -96.85141 | 491 ft | 9 kts | 270° |
| 2026-05-06 03:06 | 32.84849 | -96.85191 | 491 ft | 9 kts | 270° |
| 2026-05-06 03:07 | 32.84848 | -96.85266 | 489 ft | 9 kts | 265° |
| 2026-05-06 03:07 | 32.84806 | -96.85313 | 481 ft | 11 kts | 190° |
| 2026-05-06 03:07 | 32.84746 | -96.85229 | 489 ft | 13 kts | 89° |
| 2026-05-06 03:07 | 32.84746 | -96.85158 | 490 ft | 12 kts | 90° |
| 2026-05-06 03:08 | 32.84744 | -96.85060 | 490 ft | 8 kts | 91° |
| 2026-05-06 03:08 | 32.84711 | -96.85038 | 488 ft | 7 kts | 205° |
| 2026-05-06 03:08 | 32.84664 | -96.85042 | 480 ft | 6 kts | 179° |
| 2026-05-06 03:08 | 32.84658 | -96.85042 | 487 ft | 1 kts | 180° |
| 2026-05-06 03:09 | 32.84646 | -96.85042 | 485 ft | 0 kts | 180° |
| 2026-05-06 03:09 | 32.84645 | -96.85042 | 485 ft | 0 kts | 180° |